createdAt,value
2018-09-24T00:01:05.165Z,9.40
2018-09-24T00:03:33.590Z,9.40
2018-09-24T00:06:02.054Z,9.40
2018-09-24T00:08:31.453Z,9.40
2018-09-24T00:10:59.909Z,9.40
2018-09-24T00:13:28.355Z,9.30
2018-09-24T00:15:56.797Z,9.30
2018-09-24T00:18:25.264Z,9.30
2018-09-24T00:20:53.785Z,9.20
2018-09-24T00:23:22.326Z,9.30
2018-09-24T00:25:50.911Z,9.20
2018-09-24T00:28:19.346Z,9.20
2018-09-24T00:30:47.792Z,9.20
2018-09-24T00:33:16.228Z,9.10
2018-09-24T00:35:44.885Z,9.10
2018-09-24T00:38:13.433Z,9.10
2018-09-24T00:40:41.931Z,9.00
2018-09-24T00:43:10.402Z,9.00
2018-09-24T00:45:38.859Z,9.00
2018-09-24T00:48:07.348Z,9.00
2018-09-24T00:50:36.746Z,9.00
2018-09-24T00:53:05.224Z,9.00
2018-09-24T00:55:33.665Z,8.90
2018-09-24T00:58:02.154Z,9.00
2018-09-24T01:00:30.621Z,9.00
2018-09-24T01:02:59.085Z,8.90
2018-09-24T01:05:27.523Z,8.90
2018-09-24T01:07:55.977Z,8.90
2018-09-24T01:10:24.444Z,8.90
2018-09-24T01:12:52.877Z,8.90
2018-09-24T01:15:21.330Z,8.90
2018-09-24T01:17:49.780Z,8.90
2018-09-24T01:20:18.250Z,8.80
2018-09-24T01:22:46.726Z,8.80
2018-09-24T01:25:15.190Z,8.80
2018-09-24T01:27:43.652Z,8.70
2018-09-24T01:30:12.107Z,8.70
2018-09-24T01:32:40.556Z,8.70
2018-09-24T01:35:09.018Z,8.80
2018-09-24T01:37:37.498Z,8.70
2018-09-24T01:40:06.065Z,8.70
2018-09-24T01:42:34.526Z,8.70
2018-09-24T01:45:02.990Z,8.70
2018-09-24T01:47:31.460Z,8.70
2018-09-24T01:49:59.922Z,8.70
2018-09-24T01:52:28.459Z,8.70
2018-09-24T01:54:56.967Z,8.70
2018-09-24T01:57:25.437Z,8.70
2018-09-24T01:59:55.481Z,8.70
2018-09-24T02:02:23.968Z,8.60
2018-09-24T02:04:52.403Z,8.70
2018-09-24T02:07:21.242Z,8.70
2018-09-24T02:09:49.775Z,8.70
2018-09-24T02:12:18.253Z,8.70
2018-09-24T02:14:46.733Z,8.70
2018-09-24T02:17:16.273Z,8.60
2018-09-24T02:19:45.725Z,8.60
2018-09-24T02:22:14.409Z,8.60
2018-09-24T02:24:42.870Z,8.60
2018-09-24T02:27:11.794Z,8.60
2018-09-24T02:29:40.544Z,8.60
2018-09-24T02:32:08.977Z,8.60
2018-09-24T02:34:37.528Z,8.60
2018-09-24T02:37:06.009Z,8.50
2018-09-24T02:39:34.513Z,8.50
2018-09-24T02:42:02.965Z,8.50
2018-09-24T02:44:31.398Z,8.60
2018-09-24T02:46:59.880Z,8.60
2018-09-24T02:49:28.374Z,8.50
2018-09-24T02:52:01.906Z,8.50
2018-09-24T02:54:31.160Z,8.50
2018-09-24T02:56:59.617Z,8.50
2018-09-24T02:59:28.085Z,8.40
2018-09-24T03:01:56.624Z,8.40
2018-09-24T03:04:25.200Z,8.40
2018-09-24T03:06:53.678Z,8.40
2018-09-24T03:09:22.121Z,8.40
2018-09-24T03:11:50.591Z,8.40
2018-09-24T03:14:24.821Z,8.40
2018-09-24T03:16:53.750Z,8.40
2018-09-24T03:19:22.236Z,8.30
2018-09-24T03:21:50.766Z,8.30
2018-09-24T03:24:19.228Z,8.30
2018-09-24T03:26:47.703Z,8.30
2018-09-24T03:29:21.043Z,8.30
2018-09-24T03:31:49.529Z,8.30
2018-09-24T03:34:18.836Z,8.30
2018-09-24T03:36:48.064Z,8.20
2018-09-24T03:39:16.597Z,8.30
2018-09-24T03:41:45.427Z,8.30
2018-09-24T03:44:13.885Z,8.30
2018-09-24T03:46:42.650Z,8.20
2018-09-24T03:49:11.390Z,8.20
2018-09-24T03:51:40.107Z,8.30
2018-09-24T03:54:09.573Z,8.30
2018-09-24T03:56:38.037Z,8.20
2018-09-24T03:59:06.949Z,8.10
2018-09-24T04:01:35.387Z,8.10
2018-09-24T04:04:09.110Z,8.10
2018-09-24T04:06:42.845Z,8.10
2018-09-24T04:09:16.638Z,8.10
2018-09-24T04:11:50.425Z,8.10
2018-09-24T04:14:24.262Z,8.00
2018-09-24T04:16:57.822Z,8.10
2018-09-24T04:19:31.745Z,8.00
2018-09-24T04:22:05.386Z,8.00
2018-09-24T04:24:39.068Z,8.00
2018-09-24T04:27:12.781Z,8.00
2018-09-24T04:29:46.419Z,8.00
2018-09-24T04:32:20.361Z,8.00
2018-09-24T04:34:53.964Z,8.00
2018-09-24T04:37:27.700Z,8.00
2018-09-24T04:40:01.308Z,8.00
2018-09-24T04:42:35.097Z,8.00
2018-09-24T04:45:08.991Z,7.90
2018-09-24T04:47:42.654Z,7.90
2018-09-24T04:50:16.390Z,8.00
2018-09-24T04:52:50.143Z,7.90
2018-09-24T04:55:24.590Z,7.90
2018-09-24T04:57:58.378Z,8.00
2018-09-24T05:00:32.033Z,7.90
2018-09-24T05:03:05.815Z,7.80
2018-09-24T05:05:39.593Z,7.90
2018-09-24T05:08:13.418Z,7.90
2018-09-24T05:10:47.180Z,7.90
2018-09-24T05:13:20.885Z,7.90
2018-09-24T05:15:54.661Z,7.90
2018-09-24T05:18:28.475Z,7.90
2018-09-24T05:21:02.426Z,7.90
2018-09-24T05:23:36.129Z,8.00
2018-09-24T05:26:10.055Z,8.00
2018-09-24T05:28:44.252Z,7.90
2018-09-24T05:31:18.334Z,7.90
2018-09-24T05:33:52.053Z,7.90
2018-09-24T05:36:25.852Z,8.00
2018-09-24T05:38:59.545Z,8.00
2018-09-24T05:41:33.363Z,7.90
2018-09-24T05:44:07.237Z,7.90
2018-09-24T05:46:42.108Z,7.90
2018-09-24T05:49:24.545Z,8.00
2018-09-24T05:51:58.362Z,8.00
2018-09-24T05:54:32.074Z,8.00
2018-09-24T05:57:05.699Z,8.10
2018-09-24T05:59:39.580Z,8.10
2018-09-24T06:02:13.324Z,8.10
2018-09-24T06:04:47.449Z,8.10
2018-09-24T06:07:21.272Z,8.10
2018-09-24T06:09:55.089Z,8.10
2018-09-24T06:12:28.824Z,8.20
2018-09-24T06:15:02.538Z,8.30
2018-09-24T06:17:36.318Z,8.40
2018-09-24T06:20:10.136Z,8.50
2018-09-24T06:22:43.929Z,8.60
2018-09-24T06:25:17.701Z,8.70
2018-09-24T06:27:51.326Z,8.70
2018-09-24T06:30:25.011Z,8.80
2018-09-24T06:32:58.769Z,8.90
2018-09-24T06:35:32.669Z,8.90
2018-09-24T06:38:06.372Z,9.00
2018-09-24T06:40:40.033Z,9.10
2018-09-24T06:43:13.856Z,9.20
2018-09-24T06:45:47.633Z,9.30
2018-09-24T06:48:21.269Z,9.40
2018-09-24T06:50:55.041Z,9.50
2018-09-24T06:53:28.675Z,9.60
2018-09-24T06:56:02.526Z,9.60
2018-09-24T06:58:36.237Z,9.70
2018-09-24T07:01:10.113Z,9.80
2018-09-24T07:03:43.997Z,9.80
2018-09-24T07:06:17.780Z,9.90
2018-09-24T07:08:51.566Z,9.90
2018-09-24T07:11:25.435Z,9.90
2018-09-24T07:13:59.191Z,10.00
2018-09-24T07:16:32.770Z,10.00
2018-09-24T07:19:06.430Z,9.90
2018-09-24T07:21:40.348Z,9.90
2018-09-24T07:24:14.127Z,9.90
2018-09-24T07:26:47.945Z,9.80
2018-09-24T07:29:21.748Z,9.80
2018-09-24T07:31:55.590Z,9.70
2018-09-24T07:34:29.948Z,9.70
2018-09-24T07:37:03.774Z,9.90
2018-09-24T07:39:37.613Z,10.00
2018-09-24T07:42:11.589Z,10.10
2018-09-24T07:44:45.399Z,10.20
2018-09-24T07:47:19.073Z,10.20
2018-09-24T07:49:52.806Z,10.20
2018-09-24T07:52:26.594Z,10.30
2018-09-24T07:55:00.361Z,10.40
2018-09-24T07:57:34.109Z,10.40
2018-09-24T08:00:07.915Z,10.60
2018-09-24T08:02:41.669Z,10.70
2018-09-24T08:05:15.426Z,10.70
2018-09-24T08:07:49.189Z,10.80
2018-09-24T08:10:23.164Z,10.90
2018-09-24T08:12:57.069Z,11.00
2018-09-24T08:15:30.730Z,11.00
2018-09-24T08:18:04.533Z,11.00
2018-09-24T08:20:38.232Z,11.10
2018-09-24T08:23:12.019Z,11.20
2018-09-24T08:25:45.792Z,11.30
2018-09-24T08:28:19.481Z,11.40
2018-09-24T08:30:53.257Z,11.40
2018-09-24T08:33:27.043Z,11.50
2018-09-24T08:36:00.713Z,11.50
2018-09-24T08:38:34.622Z,11.50
2018-09-24T08:41:08.378Z,11.60
2018-09-24T08:43:42.082Z,11.70
2018-09-24T08:46:15.962Z,11.80
2018-09-24T08:48:49.791Z,11.80
2018-09-24T08:51:23.726Z,11.90
2018-09-24T08:53:57.585Z,12.00
2018-09-24T08:56:31.407Z,12.20
2018-09-24T08:59:05.121Z,12.20
2018-09-24T09:01:38.828Z,12.30
2018-09-24T09:04:12.647Z,12.60
2018-09-24T09:06:46.564Z,12.70
2018-09-24T09:09:20.299Z,12.70
2018-09-24T09:11:54.042Z,12.70
2018-09-24T09:14:27.693Z,12.80
2018-09-24T09:17:01.563Z,12.70
2018-09-24T09:19:41.979Z,12.80
2018-09-24T09:22:15.716Z,12.70
2018-09-24T09:24:49.501Z,12.60
2018-09-24T09:27:23.269Z,12.40
2018-09-24T09:29:57.146Z,12.30
2018-09-24T09:32:31.044Z,12.20
2018-09-24T09:35:04.923Z,12.00
2018-09-24T09:37:38.861Z,11.90
2018-09-24T09:40:12.665Z,11.90
2018-09-24T09:42:46.361Z,11.90
2018-09-24T09:45:20.124Z,12.00
2018-09-24T09:47:54.010Z,12.10
2018-09-24T09:50:27.828Z,12.20
2018-09-24T09:53:01.667Z,12.30
2018-09-24T09:55:35.596Z,12.30
2018-09-24T09:58:09.450Z,12.40
2018-09-24T10:00:43.262Z,12.40
2018-09-24T10:03:16.995Z,12.60
2018-09-24T10:05:50.712Z,12.60
2018-09-24T10:08:24.384Z,12.60
2018-09-24T10:10:58.182Z,12.70
2018-09-24T10:13:32.142Z,12.80
2018-09-24T10:16:05.821Z,13.00
2018-09-24T10:18:39.610Z,13.10
2018-09-24T10:21:13.404Z,13.20
2018-09-24T10:23:47.602Z,13.20
2018-09-24T10:26:21.366Z,13.10
2018-09-24T10:28:54.918Z,13.20
2018-09-24T10:31:28.744Z,13.20
2018-09-24T10:34:02.517Z,13.10
2018-09-24T10:36:36.382Z,13.10
2018-09-24T10:39:13.270Z,13.10
2018-09-24T10:41:47.537Z,13.10
2018-09-24T10:44:21.414Z,13.10
2018-09-24T10:46:55.331Z,13.20
2018-09-24T10:49:29.097Z,13.30
2018-09-24T10:52:02.766Z,13.40
2018-09-24T10:54:36.577Z,13.40
2018-09-24T10:57:10.337Z,13.50
2018-09-24T10:59:44.066Z,13.50
2018-09-24T11:02:17.706Z,13.60
2018-09-24T11:04:51.686Z,13.60
2018-09-24T11:07:25.535Z,13.70
2018-09-24T11:09:59.280Z,13.60
2018-09-24T11:12:33.002Z,13.60
2018-09-24T11:15:06.661Z,13.80
2018-09-24T11:17:40.650Z,13.90
2018-09-24T11:20:14.317Z,14.00
2018-09-24T11:22:48.118Z,14.00
2018-09-24T11:25:21.945Z,14.20
2018-09-24T11:27:55.683Z,14.30
2018-09-24T11:30:29.474Z,14.40
2018-09-24T11:33:03.237Z,14.40
2018-09-24T11:35:36.902Z,14.50
2018-09-24T11:38:10.989Z,14.50
2018-09-24T11:40:44.877Z,14.60
2018-09-24T11:43:18.790Z,14.70
2018-09-24T11:45:52.580Z,14.80
2018-09-24T11:48:26.398Z,15.00
2018-09-24T11:51:00.137Z,15.00
2018-09-24T11:53:33.752Z,14.90
2018-09-24T11:56:07.603Z,14.60
2018-09-24T11:58:41.484Z,14.70
2018-09-24T12:01:15.252Z,14.90
2018-09-24T12:03:48.841Z,15.10
2018-09-24T12:06:22.746Z,15.20
2018-09-24T12:08:56.816Z,15.20
2018-09-24T12:11:30.746Z,15.10
2018-09-24T12:14:04.614Z,15.10
2018-09-24T12:16:38.372Z,15.00
2018-09-24T12:19:12.117Z,14.40
2018-09-24T12:21:45.865Z,13.90
2018-09-24T12:24:19.687Z,13.30
2018-09-24T12:26:53.681Z,12.90
2018-09-24T12:29:27.341Z,12.60
2018-09-24T12:32:01.147Z,12.30
2018-09-24T12:34:34.832Z,12.00
2018-09-24T12:37:08.634Z,11.90
2018-09-24T12:39:42.328Z,11.90
2018-09-24T12:42:16.208Z,11.80
2018-09-24T12:44:50.021Z,11.80
2018-09-24T12:47:23.825Z,11.90
2018-09-24T12:49:57.600Z,12.00
2018-09-24T12:52:31.470Z,12.00
2018-09-24T12:55:05.232Z,12.00
2018-09-24T12:57:39.052Z,12.00
2018-09-24T13:00:12.886Z,11.90
2018-09-24T13:02:46.753Z,12.00
2018-09-24T13:05:20.582Z,12.00
2018-09-24T13:07:54.296Z,12.00
2018-09-24T13:10:28.013Z,12.00
2018-09-24T13:13:02.036Z,12.00
2018-09-24T13:15:35.857Z,12.00
2018-09-24T13:18:09.655Z,12.00
2018-09-24T13:20:43.424Z,12.10
2018-09-24T13:23:17.230Z,12.20
2018-09-24T13:25:51.047Z,12.20
2018-09-24T13:28:24.853Z,12.30
2018-09-24T13:30:58.853Z,12.30
2018-09-24T13:33:33.033Z,12.30
2018-09-24T13:36:06.790Z,12.30
2018-09-24T13:38:40.673Z,12.40
2018-09-24T13:41:14.479Z,12.30
2018-09-24T13:43:48.427Z,12.30
2018-09-24T13:46:22.283Z,12.20
2018-09-24T13:48:56.205Z,12.30
2018-09-24T13:51:29.809Z,12.30
2018-09-24T13:54:03.784Z,12.40
2018-09-24T13:56:37.757Z,12.50
2018-09-24T13:59:12.032Z,12.60
2018-09-24T14:01:45.762Z,12.70
2018-09-24T14:04:19.570Z,12.70
2018-09-24T14:06:53.306Z,12.60
2018-09-24T14:09:27.299Z,12.60
2018-09-24T14:12:01.147Z,12.60
2018-09-24T14:14:35.153Z,12.50
2018-09-24T14:17:08.932Z,12.50
2018-09-24T14:19:42.746Z,12.40
2018-09-24T14:22:16.640Z,12.40
2018-09-24T14:24:51.336Z,12.50
2018-09-24T14:27:25.240Z,12.50
2018-09-24T14:29:59.065Z,12.50
2018-09-24T14:32:33.144Z,12.40
2018-09-24T14:35:07.417Z,12.50
2018-09-24T14:37:41.209Z,12.50
2018-09-24T14:40:15.249Z,12.50
2018-09-24T14:42:49.084Z,12.50
2018-09-24T14:45:22.940Z,12.40
2018-09-24T14:47:56.688Z,12.20
2018-09-24T14:50:30.456Z,12.00
2018-09-24T14:53:04.410Z,12.00
2018-09-24T14:55:38.178Z,12.00
2018-09-24T14:58:12.451Z,12.00
2018-09-24T15:00:47.101Z,11.90
2018-09-24T15:03:20.986Z,11.70
2018-09-24T15:05:54.674Z,11.60
2018-09-24T15:08:28.276Z,11.70
2018-09-24T15:11:02.038Z,11.80
2018-09-24T15:13:35.790Z,11.90
2018-09-24T15:16:09.533Z,12.00
2018-09-24T15:18:43.471Z,12.10
2018-09-24T15:21:18.656Z,12.20
2018-09-24T15:23:52.341Z,12.30
2018-09-24T15:26:25.949Z,12.50
2018-09-24T15:28:59.731Z,12.50
2018-09-24T15:31:33.493Z,12.50
2018-09-24T15:34:07.401Z,12.40
2018-09-24T15:36:41.193Z,12.40
2018-09-24T15:39:14.994Z,12.40
2018-09-24T15:41:48.588Z,12.40
2018-09-24T15:44:22.268Z,12.40
2018-09-24T15:46:56.281Z,12.40
2018-09-24T15:49:30.179Z,12.40
2018-09-24T15:52:04.103Z,12.30
2018-09-24T15:54:38.117Z,12.20
2018-09-24T15:57:12.016Z,12.30
2018-09-24T15:59:48.364Z,12.30
2018-09-24T16:02:22.673Z,12.30
2018-09-24T16:04:56.516Z,12.40
2018-09-24T16:07:30.136Z,12.30
2018-09-24T16:10:04.066Z,12.40
2018-09-24T16:12:37.972Z,12.40
2018-09-24T16:15:12.368Z,12.40
2018-09-24T16:17:46.046Z,12.50
2018-09-24T16:20:19.754Z,12.60
2018-09-24T16:22:53.596Z,12.60
2018-09-24T16:25:27.516Z,12.70
2018-09-24T16:28:01.929Z,12.70
2018-09-24T16:30:35.690Z,12.70
2018-09-24T16:33:10.081Z,12.70
2018-09-24T16:35:43.782Z,12.70
2018-09-24T16:38:17.608Z,12.70
